createdAt,value
2022-08-03T00:01:06.433Z,58.81
2022-08-03T00:03:36.892Z,59.49
2022-08-03T00:06:07.503Z,59.52
2022-08-03T00:08:40.255Z,60.65
2022-08-03T00:11:10.583Z,59.46
2022-08-03T00:13:40.761Z,61.21
2022-08-03T00:16:14.294Z,61.49
2022-08-03T00:18:44.496Z,62.30
2022-08-03T00:21:14.968Z,62.02
2022-08-03T00:23:51.419Z,62.87
2022-08-03T00:26:23.334Z,62.73
2022-08-03T00:28:53.850Z,62.69
2022-08-03T00:31:52.669Z,63.46
2022-08-03T00:34:16.661Z,63.15
2022-08-03T00:37:03.924Z,64.10
2022-08-03T00:39:34.096Z,64.75
2022-08-03T00:42:06.038Z,65.12
2022-08-03T00:44:43.206Z,66.12
2022-08-03T00:47:15.958Z,66.28
2022-08-03T00:49:46.399Z,67.50
2022-08-03T00:52:18.530Z,67.58
2022-08-03T00:54:49.257Z,68.30
2022-08-03T00:57:19.400Z,67.89
2022-08-03T00:59:49.571Z,65.86
2022-08-03T01:02:22.399Z,67.07
2022-08-03T01:04:52.530Z,67.76
2022-08-03T01:07:30.607Z,69.14
2022-08-03T01:10:06.030Z,69.17
2022-08-03T01:12:41.785Z,68.58
2022-08-03T01:15:19.285Z,70.58
2022-08-03T01:17:59.179Z,69.27
2022-08-03T01:20:35.036Z,69.82
2022-08-03T01:23:19.343Z,71.03
2022-08-03T01:26:06.503Z,71.28
2022-08-03T01:28:59.522Z,72.08
2022-08-03T01:33:00.029Z,69.78
2022-08-03T01:34:34.440Z,73.81
2022-08-03T01:37:10.518Z,73.11
2022-08-03T01:39:42.521Z,74.55
2022-08-03T01:42:14.974Z,73.32
2022-08-03T01:44:48.987Z,73.55
2022-08-03T01:47:24.084Z,74.96
2022-08-03T01:49:55.842Z,74.59
2022-08-03T01:52:27.234Z,74.25
2022-08-03T01:54:58.609Z,76.02
2022-08-03T01:57:30.892Z,75.36
2022-08-03T02:00:04.415Z,75.32
2022-08-03T02:02:47.140Z,76.50
2022-08-03T02:05:19.372Z,76.06
2022-08-03T02:07:50.994Z,78.98
2022-08-03T02:10:35.430Z,82.87
2022-08-03T02:13:10.336Z,84.66
2022-08-03T02:15:41.917Z,82.35
2022-08-03T02:18:16.316Z,82.83
2022-08-03T02:20:47.472Z,82.47
2022-08-03T02:23:18.841Z,80.95
2022-08-03T02:25:53.968Z,77.86
2022-08-03T02:28:27.879Z,79.58
2022-08-03T02:31:00.087Z,78.98
2022-08-03T02:33:37.367Z,78.38
2022-08-03T02:36:09.243Z,77.90
2022-08-03T02:38:42.037Z,78.53
2022-08-03T02:41:18.167Z,81.11
2022-08-03T02:44:06.424Z,83.02
2022-08-03T02:46:42.638Z,83.89
2022-08-03T02:49:41.462Z,82.07
2022-08-03T02:52:13.385Z,88.87
2022-08-03T02:54:47.263Z,88.33
2022-08-03T02:57:19.574Z,87.73
2022-08-03T02:59:50.469Z,90.06
2022-08-03T03:02:22.038Z,84.18
2022-08-03T03:05:55.074Z,87.54
2022-08-03T03:07:52.928Z,84.89
2022-08-03T03:10:25.594Z,88.49
2022-08-03T03:12:58.754Z,85.38
2022-08-03T03:15:31.629Z,85.48
2022-08-03T03:18:04.130Z,85.97
2022-08-03T03:20:37.859Z,85.61
2022-08-03T03:23:08.825Z,88.65
2022-08-03T03:25:39.436Z,86.96
2022-08-03T03:28:10.551Z,86.00
2022-08-03T03:30:41.724Z,86.51
2022-08-03T03:33:12.290Z,88.16
2022-08-03T03:35:47.051Z,86.09
2022-08-03T03:38:17.301Z,93.50
2022-08-03T03:40:47.718Z,96.34
2022-08-03T03:43:18.745Z,91.95
2022-08-03T03:45:51.907Z,92.56
2022-08-03T03:48:22.464Z,89.03
2022-08-03T03:50:57.403Z,88.46
2022-08-03T03:53:28.223Z,87.66
2022-08-03T03:56:01.824Z,87.14
2022-08-03T03:58:34.393Z,86.91
2022-08-03T04:01:05.451Z,85.23
2022-08-03T04:03:35.737Z,85.24
2022-08-03T04:06:20.912Z,85.22
2022-08-03T04:09:03.496Z,87.60
2022-08-03T04:11:39.760Z,88.79
2022-08-03T04:14:13.834Z,86.93
2022-08-03T04:16:48.039Z,87.05
2022-08-03T04:19:23.529Z,85.45
2022-08-03T04:22:02.252Z,86.14
2022-08-03T04:24:37.788Z,85.50
2022-08-03T04:27:12.263Z,85.04
2022-08-03T04:29:48.400Z,86.39
2022-08-03T04:32:20.464Z,85.00
2022-08-03T04:34:50.804Z,83.36
2022-08-03T04:37:30.223Z,83.78
2022-08-03T04:40:04.700Z,82.84
2022-08-03T04:42:37.351Z,84.06
2022-08-03T04:45:10.415Z,84.35
2022-08-03T04:47:42.377Z,84.65
2022-08-03T04:50:18.147Z,83.58
2022-08-03T04:53:09.943Z,83.87
2022-08-03T04:55:40.032Z,82.37
2022-08-03T04:58:10.589Z,83.65
2022-08-03T05:00:41.385Z,83.91
2022-08-03T05:03:20.246Z,85.65
2022-08-03T05:06:01.960Z,83.15
2022-08-03T05:08:46.900Z,84.48
2022-08-03T05:11:18.207Z,83.60
2022-08-03T05:13:48.919Z,83.09
2022-08-03T05:16:19.303Z,82.86
2022-08-03T05:18:49.594Z,81.41
2022-08-03T05:21:20.217Z,81.23
2022-08-03T05:23:53.636Z,81.49
2022-08-03T05:26:23.994Z,81.11
2022-08-03T05:28:54.837Z,80.61
2022-08-03T05:31:25.766Z,79.47
2022-08-03T05:33:57.429Z,79.47
2022-08-03T05:36:28.244Z,79.51
2022-08-03T05:39:02.915Z,78.21
2022-08-03T05:41:36.607Z,78.07
2022-08-03T05:44:08.655Z,77.96
2022-08-03T05:46:39.558Z,76.23
2022-08-03T05:49:10.293Z,78.02
2022-08-03T05:51:40.943Z,78.07
2022-08-03T05:54:14.335Z,75.45
2022-08-03T05:56:44.669Z,75.15
2022-08-03T05:59:36.950Z,75.54
2022-08-03T06:02:06.528Z,74.87
2022-08-03T06:04:37.170Z,74.13
2022-08-03T06:07:07.591Z,74.80
2022-08-03T06:10:36.528Z,74.79
2022-08-03T06:12:32.385Z,72.80
2022-08-03T06:15:02.871Z,73.36
2022-08-03T06:17:37.739Z,72.87
2022-08-03T06:20:09.701Z,72.29
2022-08-03T06:22:44.506Z,71.34
2022-08-03T06:25:26.261Z,71.68
2022-08-03T06:27:57.054Z,72.56
2022-08-03T06:30:28.863Z,71.11
2022-08-03T06:33:02.038Z,70.50
2022-08-03T06:35:32.581Z,68.40
2022-08-03T06:38:05.938Z,68.31
2022-08-03T06:40:40.403Z,69.54
2022-08-03T06:43:12.734Z,69.48
2022-08-03T06:45:47.625Z,70.23
2022-08-03T06:48:18.354Z,66.78
2022-08-03T06:50:49.044Z,66.62
2022-08-03T06:53:21.460Z,67.71
2022-08-03T06:55:55.494Z,66.92
2022-08-03T06:58:26.041Z,66.33
2022-08-03T07:00:57.210Z,66.43
2022-08-03T07:03:28.083Z,64.63
2022-08-03T07:05:58.737Z,64.79
2022-08-03T07:08:33.209Z,66.63
2022-08-03T07:11:08.266Z,64.79
2022-08-03T07:13:38.720Z,64.41
2022-08-03T07:16:12.189Z,63.92
2022-08-03T07:18:43.256Z,63.55
2022-08-03T07:21:14.048Z,61.87
2022-08-03T07:23:44.503Z,60.52
2022-08-03T07:26:17.939Z,62.84
2022-08-03T07:28:48.593Z,62.15
2022-08-03T07:31:19.079Z,60.88
2022-08-03T07:33:49.924Z,62.18
2022-08-03T07:36:20.343Z,60.05
2022-08-03T07:38:51.007Z,60.72
2022-08-03T07:41:24.068Z,58.27
2022-08-03T07:43:54.607Z,59.82
2022-08-03T07:46:25.054Z,57.48
2022-08-03T07:48:57.451Z,57.62
2022-08-03T07:51:28.158Z,58.34
2022-08-03T07:53:58.707Z,58.05
2022-08-03T07:56:32.147Z,54.61
2022-08-03T07:59:03.202Z,55.39
2022-08-03T08:01:36.814Z,56.58
2022-08-03T08:04:07.718Z,54.89
2022-08-03T08:06:39.214Z,56.50
2022-08-03T08:09:10.173Z,57.25
2022-08-03T08:11:43.302Z,58.18
2022-08-03T08:14:13.492Z,52.88
2022-08-03T08:16:43.875Z,52.89
2022-08-03T08:19:14.830Z,54.76
2022-08-03T08:21:53.005Z,53.44
2022-08-03T08:24:34.148Z,52.89
2022-08-03T08:27:09.070Z,53.36
2022-08-03T08:29:53.116Z,49.09
2022-08-03T08:32:26.862Z,52.84
2022-08-03T08:34:58.018Z,48.21
2022-08-03T08:37:28.441Z,51.47
2022-08-03T08:39:59.640Z,49.30
2022-08-03T08:42:34.275Z,49.48
2022-08-03T08:45:06.332Z,49.79
2022-08-03T08:47:51.029Z,51.16
2022-08-03T08:50:27.929Z,48.89
2022-08-03T08:52:59.692Z,49.65
2022-08-03T08:55:58.256Z,46.91
2022-08-03T08:58:25.655Z,45.53
2022-08-03T09:00:59.008Z,44.54
2022-08-03T09:03:31.079Z,46.18
2022-08-03T09:06:03.943Z,46.10
2022-08-03T09:08:36.102Z,44.16
2022-08-03T09:11:07.737Z,46.28
2022-08-03T09:13:41.113Z,45.71
2022-08-03T09:16:16.075Z,47.13
2022-08-03T09:18:48.054Z,47.32
2022-08-03T09:21:33.847Z,43.33
2022-08-03T09:24:16.563Z,43.07
2022-08-03T09:26:59.190Z,40.83
2022-08-03T09:29:38.064Z,42.29
2022-08-03T09:32:09.195Z,40.39
2022-08-03T09:34:40.557Z,42.73
2022-08-03T09:37:17.377Z,41.31
2022-08-03T09:39:48.756Z,39.72
2022-08-03T09:42:23.828Z,41.09
2022-08-03T09:44:58.347Z,40.62
2022-08-03T09:47:33.515Z,41.48
2022-08-03T09:50:07.193Z,40.81
2022-08-03T09:52:49.404Z,39.13
2022-08-03T09:56:35.040Z,44.42
2022-08-03T09:58:16.152Z,39.25
2022-08-03T10:01:24.483Z,38.85
2022-08-03T10:04:03.857Z,38.82
2022-08-03T10:06:35.546Z,37.19
2022-08-03T10:09:10.637Z,38.98
2022-08-03T10:11:42.640Z,37.48
2022-08-03T10:14:19.582Z,38.43
2022-08-03T10:16:53.995Z,38.07
2022-08-03T10:19:26.152Z,37.93
2022-08-03T10:22:00.113Z,35.95
2022-08-03T10:24:33.947Z,36.79
2022-08-03T10:27:07.689Z,36.13
2022-08-03T10:29:42.098Z,34.73
2022-08-03T10:32:30.081Z,37.56
2022-08-03T10:35:18.997Z,32.97
2022-08-03T10:37:57.073Z,36.40
2022-08-03T10:40:48.087Z,37.62
2022-08-03T10:43:24.910Z,39.11
2022-08-03T10:45:56.129Z,33.59
2022-08-03T10:48:30.587Z,33.69
2022-08-03T10:51:01.326Z,33.90
2022-08-03T10:53:40.552Z,33.80
2022-08-03T10:56:54.829Z,34.25
2022-08-03T11:00:05.068Z,32.63
2022-08-03T11:03:06.775Z,33.81
2022-08-03T11:05:43.363Z,33.63
2022-08-03T11:08:35.104Z,33.17
2022-08-03T11:11:28.742Z,32.80
2022-08-03T11:14:05.067Z,34.65
2022-08-03T11:16:39.351Z,32.82
2022-08-03T11:19:11.937Z,34.51
2022-08-03T11:22:12.386Z,32.32
2022-08-03T11:25:53.447Z,33.83
2022-08-03T11:28:30.706Z,34.61
2022-08-03T11:31:52.131Z,34.29
2022-08-03T11:34:22.651Z,34.42
2022-08-03T11:37:29.936Z,34.46
2022-08-03T11:40:02.831Z,33.29
2022-08-03T11:42:50.814Z,34.33
2022-08-03T11:45:26.715Z,34.35
2022-08-03T11:47:59.094Z,33.34
2022-08-03T11:50:29.928Z,36.11
2022-08-03T11:53:00.872Z,34.83
2022-08-03T11:55:34.349Z,34.29
2022-08-03T11:59:01.043Z,33.85
2022-08-03T12:01:07.372Z,32.45
2022-08-03T12:03:39.609Z,33.48
2022-08-03T12:06:14.416Z,34.80
2022-08-03T12:08:46.911Z,32.33
2022-08-03T12:11:19.306Z,31.90
2022-08-03T12:14:45.383Z,30.83
2022-08-03T12:16:44.237Z,31.01
2022-08-03T12:19:14.369Z,32.07
2022-08-03T12:21:56.895Z,32.02
2022-08-03T12:24:29.696Z,32.43
2022-08-03T12:27:00.310Z,34.52
2022-08-03T12:29:33.151Z,34.96
2022-08-03T12:32:03.376Z,32.37
2022-08-03T12:34:48.934Z,32.36
2022-08-03T12:37:23.576Z,34.33
2022-08-03T12:40:01.377Z,33.70
2022-08-03T12:42:35.040Z,31.28
2022-08-03T12:45:27.055Z,31.72
2022-08-03T12:47:59.352Z,33.21
2022-08-03T12:50:31.957Z,30.99
2022-08-03T12:53:02.713Z,34.08
2022-08-03T12:55:56.575Z,31.23
2022-08-03T12:58:35.719Z,32.84
2022-08-03T13:01:13.708Z,30.40
2022-08-03T13:03:49.754Z,32.87
2022-08-03T13:06:23.090Z,29.40
2022-08-03T13:08:54.044Z,32.45
2022-08-03T13:11:53.604Z,31.57
2022-08-03T13:14:20.109Z,29.51
2022-08-03T13:16:53.654Z,31.71
2022-08-03T13:19:23.845Z,29.86
2022-08-03T13:22:03.437Z,31.48
2022-08-03T13:24:35.622Z,30.94
2022-08-03T13:28:02.367Z,31.08
2022-08-03T13:29:58.219Z,31.06
2022-08-03T13:32:31.274Z,31.59
2022-08-03T13:35:02.672Z,31.40
2022-08-03T13:37:34.114Z,32.07
2022-08-03T13:40:05.868Z,34.32
2022-08-03T13:42:38.928Z,33.45
2022-08-03T13:45:10.838Z,32.68
2022-08-03T13:47:43.989Z,33.55
2022-08-03T13:50:13.759Z,34.25
2022-08-03T13:52:46.386Z,32.83
2022-08-03T13:55:16.653Z,34.87
2022-08-03T13:58:05.866Z,32.15
2022-08-03T14:00:40.557Z,32.93
2022-08-03T14:03:14.726Z,32.44
2022-08-03T14:05:47.640Z,32.64
2022-08-03T14:08:18.404Z,33.00
2022-08-03T14:10:48.978Z,33.37
2022-08-03T14:13:19.147Z,33.58
2022-08-03T14:15:51.441Z,34.25
2022-08-03T14:18:28.734Z,36.32
2022-08-03T14:21:06.765Z,35.41
2022-08-03T14:23:38.621Z,36.47
2022-08-03T14:26:09.333Z,34.18
2022-08-03T14:28:39.720Z,33.47
2022-08-03T14:32:09.060Z,34.38
2022-08-03T14:34:03.610Z,33.29
2022-08-03T14:36:33.936Z,33.27
2022-08-03T14:39:05.304Z,33.55
2022-08-03T14:41:35.509Z,33.22
2022-08-03T14:44:05.656Z,33.76
2022-08-03T14:46:35.840Z,34.29
2022-08-03T14:50:30.829Z,33.22
2022-08-03T14:51:58.876Z,32.29
2022-08-03T14:54:31.088Z,32.70
2022-08-03T14:57:01.876Z,32.60
2022-08-03T14:59:55.809Z,31.66
2022-08-03T15:02:23.862Z,30.69
2022-08-03T15:04:57.259Z,33.29
2022-08-03T15:07:27.525Z,33.69
2022-08-03T15:09:57.699Z,32.08
2022-08-03T15:12:28.722Z,31.70
2022-08-03T15:14:59.070Z,31.35
2022-08-03T15:17:29.202Z,30.66
2022-08-03T15:20:18.983Z,32.09
2022-08-03T15:22:52.102Z,30.85
2022-08-03T15:26:29.292Z,31.83
2022-08-03T15:28:12.963Z,32.47
2022-08-03T15:30:43.964Z,31.44
2022-08-03T15:33:14.201Z,32.77
2022-08-03T15:35:47.872Z,32.66
2022-08-03T15:38:18.306Z,32.35
2022-08-03T15:40:48.592Z,32.91
2022-08-03T15:43:18.945Z,33.25
2022-08-03T15:45:54.627Z,32.74
2022-08-03T15:48:39.963Z,33.30
2022-08-03T15:51:13.477Z,32.77
2022-08-03T15:53:43.623Z,34.02
2022-08-03T15:56:18.435Z,33.54
2022-08-03T15:59:09.397Z,33.46
2022-08-03T16:01:39.748Z,33.50
2022-08-03T16:04:10.546Z,33.40
2022-08-03T16:06:43.419Z,34.13
2022-08-03T16:09:23.899Z,32.86
2022-08-03T16:12:03.306Z,34.27
2022-08-03T16:14:41.590Z,34.42
2022-08-03T16:17:21.930Z,34.21
2022-08-03T16:19:55.119Z,33.78
2022-08-03T16:22:28.655Z,34.34
2022-08-03T16:25:00.201Z,33.94
2022-08-03T16:28:00.266Z,34.18
2022-08-03T16:30:20.794Z,33.73
2022-08-03T16:32:50.995Z,35.40
2022-08-03T16:35:21.433Z,34.46
2022-08-03T16:37:56.625Z,34.03
2022-08-03T16:40:28.224Z,33.98
2022-08-03T16:42:58.772Z,35.12
2022-08-03T16:45:32.290Z,34.44
2022-08-03T16:48:05.896Z,33.86
2022-08-03T16:50:37.208Z,34.37
2022-08-03T16:53:15.681Z,34.41
2022-08-03T16:55:53.978Z,34.87
2022-08-03T16:58:34.936Z,33.56
2022-08-03T17:01:24.340Z,34.37
2022-08-03T17:04:02.311Z,35.20
2022-08-03T17:06:35.624Z,34.36
2022-08-03T17:09:11.132Z,35.50
2022-08-03T17:11:44.141Z,34.54
2022-08-03T17:14:21.837Z,35.51
2022-08-03T17:16:54.680Z,35.47
2022-08-03T17:19:26.661Z,36.19
2022-08-03T17:22:04.137Z,36.49
2022-08-03T17:24:41.463Z,36.87
2022-08-03T17:28:42.363Z,36.56
2022-08-03T17:30:10.506Z,36.86
2022-08-03T17:32:56.930Z,38.18
2022-08-03T17:35:36.674Z,38.38
2022-08-03T17:38:14.122Z,41.27
2022-08-03T17:40:51.930Z,39.59
2022-08-03T17:43:44.365Z,39.96
2022-08-03T17:46:13.165Z,41.99
2022-08-03T17:48:43.754Z,40.51
2022-08-03T17:51:21.073Z,45.18
2022-08-03T17:53:58.728Z,47.44
2022-08-03T17:56:46.005Z,47.16
2022-08-03T17:59:52.151Z,47.50
2022-08-03T18:02:37.495Z,48.59
2022-08-03T18:05:16.473Z,48.82
2022-08-03T18:08:01.579Z,50.69
2022-08-03T18:10:49.885Z,51.09
2022-08-03T18:13:30.169Z,52.00
2022-08-03T18:16:04.617Z,50.54
2022-08-03T18:18:39.060Z,50.57
2022-08-03T18:21:16.974Z,51.96
2022-08-03T18:23:52.376Z,53.16
2022-08-03T18:26:23.396Z,54.44
2022-08-03T18:28:58.770Z,54.53
2022-08-03T18:32:00.445Z,54.64
2022-08-03T18:34:33.158Z,55.87
2022-08-03T18:37:07.700Z,55.38
2022-08-03T18:39:50.095Z,54.97
2022-08-03T18:42:26.489Z,56.06
2022-08-03T18:44:59.763Z,56.96
2022-08-03T18:47:59.767Z,56.58
2022-08-03T18:50:39.057Z,57.22
2022-08-03T18:53:19.751Z,57.31
2022-08-03T18:56:01.594Z,58.26
2022-08-03T18:58:38.751Z,57.77
2022-08-03T19:01:57.706Z,58.72
2022-08-03T19:04:15.260Z,59.81
2022-08-03T19:06:50.452Z,60.01
2022-08-03T19:09:31.998Z,60.05
2022-08-03T19:12:13.926Z,60.26
2022-08-03T19:15:04.627Z,61.18
2022-08-03T19:17:43.443Z,60.10
2022-08-03T19:20:25.138Z,60.17
2022-08-03T19:22:57.505Z,61.58
2022-08-03T19:25:35.062Z,60.89
2022-08-03T19:28:07.723Z,60.63
2022-08-03T19:30:40.726Z,61.25
2022-08-03T19:33:19.887Z,61.58
2022-08-03T19:35:55.532Z,63.02
2022-08-03T19:38:29.849Z,63.24
2022-08-03T19:41:02.079Z,64.32
2022-08-03T19:43:52.453Z,65.40
2022-08-03T19:46:30.137Z,65.88
2022-08-03T19:49:10.566Z,66.55
2022-08-03T19:52:00.723Z,66.30
2022-08-03T19:54:52.932Z,65.73
2022-08-03T19:57:27.489Z,64.46
2022-08-03T20:00:05.171Z,63.77
2022-08-03T20:02:36.623Z,62.71
2022-08-03T20:05:11.935Z,62.61
2022-08-03T20:07:48.632Z,62.97
2022-08-03T20:10:21.218Z,62.32
2022-08-03T20:12:52.956Z,62.71
2022-08-03T20:15:54.995Z,62.79
2022-08-03T20:18:40.713Z,62.63
2022-08-03T20:21:20.532Z,63.87
2022-08-03T20:24:02.920Z,65.23
2022-08-03T20:26:47.722Z,61.00
2022-08-03T20:29:31.464Z,60.83
2022-08-03T20:32:13.659Z,60.65
2022-08-03T20:34:44.078Z,61.40
2022-08-03T20:37:23.007Z,62.11
2022-08-03T20:39:54.637Z,62.32
2022-08-03T20:42:25.698Z,62.61
2022-08-03T20:45:04.583Z,62.42
2022-08-03T20:47:50.231Z,64.33
2022-08-03T20:50:22.690Z,64.53
2022-08-03T20:52:56.693Z,66.49
2022-08-03T20:58:23.855Z,66.82
2022-08-03T21:00:56.396Z,65.62
2022-08-03T21:03:40.760Z,66.99
2022-08-03T21:06:27.453Z,66.74
2022-08-03T21:09:07.940Z,67.73
2022-08-03T21:11:43.491Z,66.44
2022-08-03T21:13:12.437Z,67.39
2022-08-03T21:14:18.719Z,68.47
2022-08-03T21:16:53.562Z,66.30
2022-08-03T21:19:25.493Z,66.47
2022-08-03T21:21:58.783Z,66.43
2022-08-03T21:24:33.355Z,66.91
2022-08-03T21:27:05.718Z,68.95
2022-08-03T21:29:37.206Z,68.96
2022-08-03T21:32:32.847Z,68.99
2022-08-03T21:35:05.342Z,69.66
2022-08-03T21:37:36.952Z,65.82
2022-08-03T21:40:13.158Z,65.68
2022-08-03T21:45:19.820Z,65.35
2022-08-03T21:47:51.386Z,64.82
2022-08-03T21:50:22.257Z,65.55
2022-08-03T21:52:56.961Z,66.09
2022-08-03T21:55:34.965Z,65.61
2022-08-03T21:58:07.996Z,67.40
2022-08-03T22:00:49.436Z,68.10
2022-08-03T22:03:20.598Z,65.64
2022-08-03T22:05:51.547Z,64.86
2022-08-03T22:08:33.313Z,64.99
2022-08-03T22:11:07.384Z,66.07
2022-08-03T22:13:43.337Z,67.95
2022-08-03T22:16:17.178Z,69.88
2022-08-03T22:18:49.754Z,69.23
2022-08-03T22:21:27.945Z,69.30
2022-08-03T22:24:09.343Z,69.75
2022-08-03T22:27:05.034Z,71.22
2022-08-03T22:29:37.798Z,70.49
2022-08-03T22:32:08.727Z,71.19
2022-08-03T22:34:41.157Z,70.24
2022-08-03T22:37:12.838Z,69.77
2022-08-03T22:39:44.129Z,67.91
2022-08-03T22:42:17.635Z,70.05
2022-08-03T22:44:49.738Z,70.09
2022-08-03T22:47:22.790Z,70.10
2022-08-03T22:50:31.435Z,72.54
2022-08-03T22:52:47.664Z,71.27
2022-08-03T22:55:25.139Z,71.39
2022-08-03T22:57:59.016Z,73.14
2022-08-03T23:00:42.889Z,71.51
2022-08-03T23:03:19.069Z,73.67
2022-08-03T23:06:00.239Z,75.87
2022-08-03T23:08:37.308Z,75.59
2022-08-03T23:11:11.579Z,72.96
2022-08-03T23:13:45.358Z,75.44
2022-08-03T23:16:28.688Z,75.45
2022-08-03T23:19:13.130Z,75.64
2022-08-03T23:21:53.243Z,75.45
2022-08-03T23:24:31.456Z,76.48
2022-08-03T23:27:05.907Z,76.04
2022-08-03T23:29:41.842Z,74.91
2022-08-03T23:32:14.273Z,76.64
2022-08-03T23:34:58.598Z,75.23
2022-08-03T23:37:30.112Z,73.80
2022-08-03T23:40:01.978Z,74.94
2022-08-03T23:42:32.715Z,76.98
2022-08-03T23:45:09.002Z,74.78
2022-08-03T23:47:47.464Z,74.79
2022-08-03T23:50:18.550Z,75.05
2022-08-03T23:53:00.374Z,79.56
2022-08-03T23:55:43.967Z,78.78
2022-08-03T23:58:25.978Z,80.02
